Time;durP1;ratioP1;P1;durP2;ratioP2;P2;SDS_P1;SDS_P2;PMS_P1;PMS_P2;Temp;Humidity;BMP_temperature;BMP_pressure;BME280_temperature;BME280_humidity;BME280_pressure;Samples;Min_cycle;Max_cycle;Signal;HPM_P1;HPM_P2
2020/12/20 00:01:39;;;;;;;7.63;6.53;;;;;;;8.50;74.40;100444.38;5104463;27;20529;-66
2020/12/20 00:04:07;;;;;;;6.73;6.10;;;;;;;8.40;74.97;100444.19;5105237;28;20517;-66
2020/12/20 00:06:37;;;;;;;7.63;6.63;;;;;;;8.42;74.71;100450.25;5115666;27;21292;-69
2020/12/20 00:09:08;;;;;;;9.67;6.97;;;;;;;8.54;73.89;100444.00;5105368;28;20808;-68
2020/12/20 00:11:38;;;;;;;10.07;7.97;;;;;;;8.46;74.29;100439.28;5103791;28;20474;-68
2020/12/20 00:14:26;;;;;;;6.83;6.00;;;;;;;8.38;74.38;100439.00;5104210;28;20451;-68
2020/12/20 00:16:52;;;;;;;9.30;6.70;;;;;;;8.42;73.92;100435.16;5113534;28;20473;-67
2020/12/20 00:19:19;;;;;;;8.97;7.20;;;;;;;8.34;74.73;100434.88;5109855;28;20450;-68
2020/12/20 00:21:45;;;;;;;9.20;6.63;;;;;;;8.33;74.97;100443.00;5107204;27;20474;-66
2020/12/20 00:24:11;;;;;;;8.90;6.90;;;;;;;8.41;74.36;100437.91;5104459;28;20509;-66
2020/12/20 00:26:38;;;;;;;10.77;7.37;;;;;;;8.32;74.73;100442.16;5102607;28;20467;-65
2020/12/20 00:29:04;;;;;;;9.80;7.00;;;;;;;8.34;74.39;100442.03;5105018;28;20709;-66
2020/12/20 00:31:30;;;;;;;12.90;6.90;;;;;;;8.33;74.30;100443.00;5102874;28;20504;-65
2020/12/20 00:33:57;;;;;;;10.27;7.27;;;;;;;8.32;74.21;100444.00;5109811;28;20466;-65
2020/12/20 00:36:24;;;;;;;9.60;6.60;;;;;;;8.32;74.87;100446.66;5116981;27;20474;-67
2020/12/20 00:38:50;;;;;;;9.20;6.03;;;;;;;8.28;74.75;100446.88;5106475;28;20500;-65
2020/12/20 00:41:16;;;;;;;11.13;7.07;;;;;;;8.27;75.00;100450.50;5104467;28;20513;-67
2020/12/20 00:43:42;;;;;;;11.00;7.30;;;;;;;8.21;75.20;100458.13;5106038;28;20436;-65
2020/12/20 00:46:08;;;;;;;12.20;6.60;;;;;;;8.21;75.11;100442.16;5104005;27;20482;-65
2020/12/20 00:48:35;;;;;;;10.83;7.47;;;;;;;8.21;75.64;100442.16;5105621;28;20451;-65
2020/12/20 00:51:02;;;;;;;10.70;7.40;;;;;;;8.21;75.63;100439.47;5110967;27;20478;-66
2020/12/20 00:53:29;;;;;;;8.17;6.40;;;;;;;8.20;75.59;100427.16;5105964;28;20812;-65
2020/12/20 00:55:55;;;;;;;12.33;7.60;;;;;;;8.21;75.59;100428.81;5103950;28;20473;-65
2020/12/20 00:58:21;;;;;;;7.60;6.40;;;;;;;8.14;75.78;100430.28;5106342;28;20446;-65
2020/12/20 01:00:48;;;;;;;7.53;6.27;;;;;;;8.17;75.80;100433.56;5116378;27;20510;-67
2020/12/20 01:03:16;;;;;;;8.10;6.90;;;;;;;8.15;75.78;100445.31;5117888;28;20466;-67
2020/12/20 01:05:42;;;;;;;7.57;6.50;;;;;;;8.18;75.58;100440.59;5109486;27;20499;-67
2020/12/20 01:08:09;;;;;;;8.70;6.00;;;;;;;8.17;75.83;100441.53;5105216;28;20455;-67
2020/12/20 01:10:36;;;;;;;7.70;6.40;;;;;;;8.19;75.82;100436.09;5104126;28;20562;-67
2020/12/20 01:13:03;;;;;;;8.30;6.60;;;;;;;8.15;76.06;100446.16;5104769;28;20439;-65
2020/12/20 01:15:29;;;;;;;10.30;6.40;;;;;;;8.13;76.32;100437.44;5103404;27;20467;-65
2020/12/20 01:17:56;;;;;;;9.40;6.33;;;;;;;8.13;76.21;100445.44;5105506;28;20443;-65
2020/12/20 01:20:22;;;;;;;8.53;6.00;;;;;;;8.14;76.60;100439.13;5109764;27;20521;-65
2020/12/20 01:22:48;;;;;;;6.63;5.40;;;;;;;8.07;76.42;100441.44;5110270;28;20431;-66
2020/12/20 01:25:14;;;;;;;6.93;5.80;;;;;;;8.08;76.67;100439.59;5103661;28;20487;-65
2020/12/20 01:27:42;;;;;;;9.97;6.50;;;;;;;7.96;77.09;100441.41;5106698;28;20446;-65
2020/12/20 01:30:08;;;;;;;7.23;6.37;;;;;;;8.03;76.89;100441.78;5117909;27;20482;-65
2020/12/20 01:32:34;;;;;;;7.33;6.17;;;;;;;7.97;77.33;100434.25;5119363;28;20493;-65
2020/12/20 01:35:00;;;;;;;7.90;5.80;;;;;;;7.97;77.60;100429.81;5105981;28;20447;-66
2020/12/20 01:37:26;;;;;;;6.93;6.23;;;;;;;8.07;76.97;100433.44;5092269;28;21042;-65
2020/12/20 01:39:52;;;;;;;6.80;6.10;;;;;;;8.19;76.61;100438.75;5105454;28;20483;-65
2020/12/20 01:42:19;;;;;;;7.10;6.00;;;;;;;8.20;76.82;100429.81;5103297;28;20934;-65
2020/12/20 01:44:46;;;;;;;7.07;6.10;;;;;;;8.26;76.94;100439.97;5108766;28;20509;-65
2020/12/20 01:47:13;;;;;;;7.30;5.73;;;;;;;8.25;77.12;100432.97;5117920;27;20502;-65
2020/12/20 01:49:39;;;;;;;8.67;5.97;;;;;;;8.22;76.95;100434.03;5106698;28;20442;-65
2020/12/20 01:52:05;;;;;;;6.13;5.03;;;;;;;8.32;76.74;100436.84;5107404;27;20499;-66
2020/12/20 01:54:32;;;;;;;7.13;6.40;;;;;;;8.29;76.93;100437.91;5104543;28;20489;-65
2020/12/20 01:56:58;;;;;;;6.97;5.93;;;;;;;8.37;76.28;100445.31;5103064;28;20475;-65
2020/12/20 01:59:24;;;;;;;8.80;5.47;;;;;;;8.38;76.82;100427.50;5105345;28;20478;-65
2020/12/20 02:01:51;;;;;;;6.63;5.30;;;;;;;8.35;76.52;100439.25;5104147;27;20482;-65
2020/12/20 02:04:17;;;;;;;5.70;5.17;;;;;;;8.18;77.44;100439.75;5087905;28;20506;-65
2020/12/20 02:06:44;;;;;;;6.80;5.30;;;;;;;8.23;77.31;100441.06;5115631;27;20481;-66
2020/12/20 02:09:11;;;;;;;7.07;5.00;;;;;;;8.17;77.36;100438.88;5105166;28;20461;-65
2020/12/20 02:11:37;;;;;;;6.80;5.40;;;;;;;8.20;77.17;100437.81;5103157;28;20466;-65
2020/12/20 02:14:03;;;;;;;7.20;6.03;;;;;;;8.08;77.76;100434.28;5104295;28;20447;-65
2020/12/20 02:16:29;;;;;;;7.17;5.50;;;;;;;8.28;77.38;100430.03;5102468;27;20938;-66
2020/12/20 02:18:56;;;;;;;10.80;5.80;;;;;;;8.22;77.49;100431.38;5106524;28;20467;-65
2020/12/20 02:21:23;;;;;;;9.27;6.10;;;;;;;8.20;77.54;100424.50;5115815;27;20508;-65
2020/12/20 02:23:50;;;;;;;7.47;5.63;;;;;;;8.18;77.69;100426.44;5104886;28;20443;-65
2020/12/20 02:26:17;;;;;;;6.43;5.53;;;;;;;8.19;77.64;100425.44;5103351;28;20471;-66
2020/12/20 02:28:43;;;;;;;5.70;5.07;;;;;;;8.10;78.10;100427.00;5104529;28;20435;-65
2020/12/20 02:31:09;;;;;;;9.67;5.90;;;;;;;8.19;77.60;100436.09;5102393;27;20831;-65
2020/12/20 02:33:36;;;;;;;6.23;5.20;;;;;;;8.15;77.88;100432.00;5104608;28;20514;-65
2020/12/20 02:36:02;;;;;;;6.03;4.90;;;;;;;8.13;78.51;100426.78;5110704;28;20474;-65
2020/12/20 02:38:29;;;;;;;7.10;5.60;;;;;;;8.14;77.97;100428.47;5106598;28;20777;-65
2020/12/20 02:40:56;;;;;;;6.07;5.27;;;;;;;8.15;77.63;100430.16;5098853;28;20471;-65
2020/12/20 02:43:22;;;;;;;5.60;5.10;;;;;;;8.16;78.16;100431.88;5084529;28;20463;-65
2020/12/20 02:45:48;;;;;;;7.97;5.50;;;;;;;8.07;78.08;100422.78;5082117;28;20468;-64
2020/12/20 02:48:14;;;;;;;11.70;5.80;;;;;;;8.04;78.47;100420.38;5083533;28;20447;-65
2020/12/20 02:50:41;;;;;;;8.10;6.73;;;;;;;8.01;78.31;100422.41;5082128;28;21119;-65
2020/12/20 02:53:07;;;;;;;6.07;5.47;;;;;;;7.96;78.77;100427.25;5083909;28;20487;-65
2020/12/20 02:55:34;;;;;;;6.20;5.60;;;;;;;8.03;78.35;100420.47;5082390;28;20517;-65
2020/12/20 02:58:00;;;;;;;6.57;5.77;;;;;;;7.89;78.83;100419.72;5083996;28;20436;-64
2020/12/20 03:00:26;;;;;;;6.10;5.50;;;;;;;7.84;79.33;100421.91;5082142;28;20882;-65
2020/12/20 03:02:52;;;;;;;6.37;5.53;;;;;;;7.85;79.57;100431.59;5084020;28;20451;-67
2020/12/20 03:05:18;;;;;;;6.17;5.30;;;;;;;7.79;79.44;100425.88;5081821;28;20488;-67
2020/12/20 03:07:45;;;;;;;5.53;4.87;;;;;;;7.86;78.99;100430.63;5083571;28;20846;-68
2020/12/20 03:10:11;;;;;;;7.23;5.30;;;;;;;7.68;79.81;100424.91;5083720;28;20456;-67
2020/12/20 03:12:38;;;;;;;7.33;5.47;;;;;;;7.61;80.30;100422.84;5088598;28;20501;-67
2020/12/20 03:15:04;;;;;;;6.70;5.57;;;;;;;7.68;80.17;100418.75;5087208;28;20491;-67
2020/12/20 03:17:31;;;;;;;6.67;5.70;;;;;;;7.60;80.48;100423.78;5127318;28;20448;-67
2020/12/20 03:19:57;;;;;;;7.43;5.87;;;;;;;7.73;79.88;100419.22;5109151;28;20438;-65
2020/12/20 03:22:23;;;;;;;7.57;5.53;;;;;;;7.87;78.88;100424.34;5117770;27;20470;-66
2020/12/20 03:24:49;;;;;;;8.33;4.50;;;;;;;7.78;79.54;100419.72;5107547;28;20533;-66
2020/12/20 03:27:15;;;;;;;6.03;5.27;;;;;;;7.93;78.94;100425.66;5106207;28;20474;-65
2020/12/20 03:29:42;;;;;;;6.80;5.87;;;;;;;7.91;78.76;100424.94;5107727;28;20447;-65
2020/12/20 03:32:08;;;;;;;5.67;5.00;;;;;;;7.94;78.56;100434.53;5126197;27;20470;-65
2020/12/20 03:34:35;;;;;;;6.47;5.80;;;;;;;7.91;78.52;100425.78;5113056;28;20856;-65
2020/12/20 03:37:01;;;;;;;8.17;5.80;;;;;;;7.87;78.46;100434.97;5117438;27;20495;-66
2020/12/20 03:39:27;;;;;;;7.07;6.10;;;;;;;7.94;77.87;100440.69;5107698;28;20492;-65
2020/12/20 03:41:53;;;;;;;8.20;5.90;;;;;;;7.94;78.16;100439.84;5093129;28;20479;-65
2020/12/20 03:44:19;;;;;;;6.90;6.13;;;;;;;7.90;78.56;100434.75;5099273;28;20494;-65
2020/12/20 03:46:46;;;;;;;6.30;5.23;;;;;;;7.90;78.81;100448.06;5085208;28;20494;-65
2020/12/20 03:49:12;;;;;;;7.27;5.83;;;;;;;7.86;78.29;100437.75;5087247;28;20824;-66
2020/12/20 03:51:38;;;;;;;7.80;6.67;;;;;;;7.94;78.11;100432.69;5097768;28;20502;-65
2020/12/20 03:54:06;;;;;;;6.67;5.27;;;;;;;7.87;78.30;100429.66;5107311;28;20455;-65
2020/12/20 03:56:33;;;;;;;7.07;5.93;;;;;;;7.83;78.75;100432.66;5105672;28;20482;-65
2020/12/20 03:58:59;;;;;;;7.40;5.93;;;;;;;7.83;78.38;100425.56;5109879;28;20463;-65
2020/12/20 04:01:25;;;;;;;6.27;5.67;;;;;;;7.90;77.94;100420.59;5120977;27;20471;-65
2020/12/20 04:03:52;;;;;;;6.97;6.27;;;;;;;7.83;78.38;100422.03;5123267;28;20476;-65
2020/12/20 04:06:19;;;;;;;5.67;5.17;;;;;;;7.81;78.35;100432.81;5113671;27;20833;-65
2020/12/20 04:08:45;;;;;;;6.97;6.27;;;;;;;7.76;78.64;100434.09;5106778;28;20471;-66
2020/12/20 04:11:11;;;;;;;7.70;5.90;;;;;;;7.70;78.55;100424.78;5105032;28;20469;-66
2020/12/20 04:13:37;;;;;;;8.17;5.93;;;;;;;7.62;79.23;100429.84;5105833;28;20458;-66
2020/12/20 04:16:05;;;;;;;7.60;5.53;;;;;;;7.55;79.62;100434.78;5105122;27;20509;-65
2020/12/20 04:18:31;;;;;;;6.10;5.50;;;;;;;7.48;80.09;100430.88;5106987;28;20427;-65
2020/12/20 04:20:58;;;;;;;6.17;5.57;;;;;;;7.53;80.05;100428.72;5113709;27;20815;-65
2020/12/20 04:23:24;;;;;;;6.30;5.70;;;;;;;7.63;79.73;100426.22;5109757;28;20870;-65
2020/12/20 04:25:51;;;;;;;6.00;5.40;;;;;;;7.61;79.39;100421.03;5104870;28;20471;-65
2020/12/20 04:28:17;;;;;;;8.73;5.83;;;;;;;7.65;79.32;100427.78;5106381;28;20439;-66
2020/12/20 04:30:43;;;;;;;7.00;5.80;;;;;;;7.62;79.40;100422.72;5104653;27;20467;-66
2020/12/20 04:33:09;;;;;;;8.53;5.70;;;;;;;7.66;79.15;100436.66;5106435;28;20443;-66
2020/12/20 04:35:35;;;;;;;5.90;5.00;;;;;;;7.71;79.27;100429.16;5112201;27;20495;-66
2020/12/20 04:38:03;;;;;;;6.80;5.70;;;;;;;7.71;79.28;100426.50;5112428;28;20446;-66
2020/12/20 04:40:29;;;;;;;7.30;6.50;;;;;;;7.66;79.16;100423.34;5104815;28;20463;-66
2020/12/20 04:43:01;;;;;;;7.43;6.37;;;;;;;7.58;80.08;100418.59;5105306;28;20512;-66
2020/12/20 04:45:27;;;;;;;9.97;5.97;;;;;;;7.63;79.75;100418.25;5104713;27;20491;-66
2020/12/20 04:47:54;;;;;;;8.17;7.37;;;;;;;7.53;78.92;100418.09;5106757;28;20477;-65
2020/12/20 04:50:22;;;;;;;10.40;9.00;;;;;;;7.04;79.28;100427.94;5121199;27;20434;-65
2020/12/20 04:52:49;;;;;;;12.07;8.40;;;;;;;6.57;80.40;100433.09;5105474;28;20435;-66
2020/12/20 04:55:16;;;;;;;11.03;9.20;;;;;;;6.46;81.09;100435.69;5104796;28;20447;-65
2020/12/20 04:57:42;;;;;;;10.57;8.60;;;;;;;6.29;80.80;100439.53;5105446;28;20447;-66
2020/12/20 05:00:08;;;;;;;12.70;9.47;;;;;;;6.11;81.57;100444.34;5105002;27;20435;-65
2020/12/20 05:02:35;;;;;;;11.33;9.50;;;;;;;6.09;82.11;100450.72;5104993;28;20454;-65
2020/12/20 05:05:01;;;;;;;11.10;10.00;;;;;;;6.10;81.92;100455.91;5107416;28;20495;-66
2020/12/20 05:07:27;;;;;;;16.50;10.23;;;;;;;6.09;81.92;100454.19;5114935;27;20504;-65
2020/12/20 05:09:53;;;;;;;12.27;9.37;;;;;;;6.10;81.85;100455.06;5106080;28;20827;-66
2020/12/20 05:12:28;;;;;;;11.23;10.13;;;;;;;6.10;82.07;100457.72;5103730;28;20499;-65
2020/12/20 05:14:54;;;;;;;11.43;10.23;;;;;;;5.96;82.57;100459.53;5112647;28;20448;-65
2020/12/20 05:17:20;;;;;;;12.93;10.43;;;;;;;5.96;82.53;100448.91;5115727;27;20512;-65
2020/12/20 05:19:46;;;;;;;11.07;9.70;;;;;;;5.87;82.43;100449.53;5107095;28;20478;-66
2020/12/20 05:22:17;;;;;;;11.90;10.00;;;;;;;5.88;82.34;100443.25;5114902;27;21002;-65
2020/12/20 05:24:44;;;;;;;12.57;9.90;;;;;;;5.80;82.81;100446.44;5105137;28;20525;-65
2020/12/20 05:27:29;;;;;;;12.60;9.73;;;;;;;5.78;82.82;100443.03;5103521;28;20469;-64
2020/12/20 05:29:56;;;;;;;12.40;10.80;;;;;;;5.76;83.13;100433.47;5092768;28;20488;-65
2020/12/20 05:32:29;;;;;;;11.80;10.07;;;;;;;5.76;82.66;100434.31;5102741;27;20466;-65
2020/12/20 05:34:59;;;;;;;13.50;10.40;;;;;;;5.68;83.39;100441.97;5110894;28;20462;-65
2020/12/20 05:37:31;;;;;;;12.60;10.13;;;;;;;5.72;83.12;100437.31;5103853;27;20525;-65
2020/12/20 05:39:57;;;;;;;13.07;9.97;;;;;;;5.72;83.37;100446.09;5105760;28;20447;-65
2020/12/20 05:42:24;;;;;;;13.70;10.27;;;;;;;5.81;82.98;100448.13;5102704;28;20507;-65
2020/12/20 05:45:04;;;;;;;13.43;11.37;;;;;;;5.79;82.90;100452.69;5105287;28;20479;-65
2020/12/20 05:47:30;;;;;;;12.57;11.27;;;;;;;5.80;83.19;100446.44;5083444;28;20491;-65
2020/12/20 05:49:56;;;;;;;12.90;11.20;;;;;;;5.70;83.53;100455.97;5084637;28;20440;-65
2020/12/20 05:52:22;;;;;;;15.00;10.70;;;;;;;5.70;83.84;100444.53;5104176;27;20494;-65
2020/12/20 05:54:49;;;;;;;14.60;11.33;;;;;;;5.60;84.27;100444.28;5105199;28;20532;-65
2020/12/20 05:57:16;;;;;;;12.53;10.87;;;;;;;5.56;84.44;100446.28;5102550;28;20483;-64
2020/12/20 05:59:44;;;;;;;13.83;10.33;;;;;;;5.48;84.89;100459.22;5102463;28;20427;-65
2020/12/20 06:02:12;;;;;;;16.70;11.47;;;;;;;5.52;84.68;100459.84;5082557;28;20480;-64
2020/12/20 06:04:39;;;;;;;13.13;11.20;;;;;;;5.46;85.23;100461.97;5083337;28;20502;-65
2020/12/20 06:07:07;;;;;;;15.77;10.97;;;;;;;5.55;84.94;100471.09;5080247;28;20476;-65
2020/12/20 06:09:39;;;;;;;14.83;12.77;;;;;;;5.62;84.89;100453.84;5084180;28;20463;-64
2020/12/20 06:12:11;;;;;;;12.70;11.30;;;;;;;5.63;84.51;100455.53;5086699;28;20475;-64
2020/12/20 06:14:42;;;;;;;12.50;10.60;;;;;;;5.62;85.11;100445.91;5083526;28;20447;-65
2020/12/20 06:17:17;;;;;;;13.10;10.63;;;;;;;5.65;84.92;100453.63;5118107;28;20519;-65
2020/12/20 06:19:51;;;;;;;13.07;10.70;;;;;;;5.63;85.13;100450.22;5109810;28;20445;-65
2020/12/20 06:22:22;;;;;;;13.43;11.10;;;;;;;5.69;85.11;100453.41;5114584;27;20490;-65
2020/12/20 06:24:50;;;;;;;14.23;11.40;;;;;;;5.63;85.19;100450.22;5105165;28;20482;-65
2020/12/20 06:27:18;;;;;;;15.00;11.40;;;;;;;5.63;85.29;100454.69;5103218;28;20486;-65
2020/12/20 06:29:48;;;;;;;12.83;10.80;;;;;;;5.66;85.34;100460.63;5104026;28;20447;-66
2020/12/20 06:32:18;;;;;;;13.57;11.67;;;;;;;5.69;85.21;100453.41;5102884;28;20475;-66
2020/12/20 06:34:45;;;;;;;11.60;10.10;;;;;;;5.68;85.65;100459.66;5107268;28;20446;-66
2020/12/20 06:37:12;;;;;;;12.20;10.70;;;;;;;5.72;85.21;100459.38;5105308;27;20502;-66
2020/12/20 06:39:39;;;;;;;18.10;11.13;;;;;;;5.69;85.26;100464.88;5104187;28;20457;-65
2020/12/20 06:42:06;;;;;;;14.03;11.37;;;;;;;5.72;85.17;100459.38;5102992;28;20474;-65
2020/12/20 06:44:32;;;;;;;14.33;12.07;;;;;;;5.66;85.23;100457.16;5118213;28;21013;-66
2020/12/20 06:46:58;;;;;;;15.87;12.77;;;;;;;5.63;85.39;100457.34;5112279;27;20533;-66
2020/12/20 06:49:33;;;;;;;14.63;12.77;;;;;;;5.78;86.74;100452.78;5121509;28;20503;-66
2020/12/20 06:52:22;;;;;;;14.90;11.70;;;;;;;5.62;85.40;100455.63;5104887;28;20502;-66
2020/12/20 06:55:10;;;;;;;14.00;11.33;;;;;;;5.68;85.49;100459.66;5105424;28;20527;-66
2020/12/20 06:57:37;;;;;;;13.60;11.57;;;;;;;5.62;86.09;100460.94;5098402;28;20494;-66
2020/12/20 07:00:04;;;;;;;14.53;11.10;;;;;;;5.80;86.30;100464.16;5111029;28;20445;-66
2020/12/20 07:02:44;;;;;;;14.33;11.50;;;;;;;5.68;85.52;100460.53;5107541;28;20489;-66
2020/12/20 07:05:36;;;;;;;12.90;11.60;;;;;;;5.77;85.34;100461.72;5105822;27;20482;-66
2020/12/20 07:08:14;;;;;;;11.40;9.77;;;;;;;5.62;85.84;100460.94;5111773;28;20467;-66
2020/12/20 07:10:44;;;;;;;17.20;11.87;;;;;;;5.55;86.17;100467.63;5100111;28;20494;-66
2020/12/20 07:13:12;;;;;;;16.27;12.90;;;;;;;5.56;85.79;100459.56;5104274;28;20522;-65
2020/12/20 07:15:45;;;;;;;14.70;12.10;;;;;;;5.66;86.01;100465.94;5112256;28;20463;-66
2020/12/20 07:18:11;;;;;;;15.47;12.57;;;;;;;5.79;85.59;100465.94;5104524;28;20494;-65
2020/12/20 07:20:38;;;;;;;22.80;20.50;;;;;;;5.72;85.35;100466.47;5109511;27;20510;-66
2020/12/20 07:23:04;;;;;;;18.70;16.70;;;;;;;5.68;86.06;100468.50;5110991;28;20458;-66
2020/12/20 07:25:30;;;;;;;23.87;21.33;;;;;;;5.62;86.45;100477.72;5103719;28;20486;-66
2020/12/20 07:27:57;;;;;;;13.93;12.30;;;;;;;5.74;85.56;100477.84;5099916;28;20447;-65
2020/12/20 07:30:23;;;;;;;16.27;12.90;;;;;;;5.69;85.67;100472.00;5109447;27;20987;-66
2020/12/20 07:32:49;;;;;;;14.93;11.80;;;;;;;5.70;86.05;100479.00;5102786;28;20474;-66
2020/12/20 07:35:15;;;;;;;18.17;12.40;;;;;;;5.66;86.11;100465.94;5094769;28;20486;-66
2020/12/20 07:37:51;;;;;;;13.97;11.00;;;;;;;5.72;85.62;100469.13;5116749;28;20461;-66
2020/12/20 07:40:18;;;;;;;15.00;11.10;;;;;;;5.74;85.37;100465.41;5106249;28;20447;-66
2020/12/20 07:42:44;;;;;;;17.50;12.03;;;;;;;5.61;85.64;100465.41;5107094;28;20481;-66
2020/12/20 07:45:12;;;;;;;13.20;11.33;;;;;;;5.58;86.22;100475.38;5105696;28;20513;-66
2020/12/20 07:47:38;;;;;;;16.90;13.03;;;;;;;5.56;86.22;100471.97;5107144;28;20535;-66
2020/12/20 07:50:04;;;;;;;16.50;13.20;;;;;;;5.60;86.48;100478.75;5106333;28;20442;-66
2020/12/20 07:52:30;;;;;;;13.33;11.57;;;;;;;5.56;86.31;100494.03;5095587;28;20493;-66
2020/12/20 07:54:58;;;;;;;14.50;12.67;;;;;;;5.46;86.93;100490.28;5106909;28;20471;-66
2020/12/20 07:57:25;;;;;;;15.90;13.50;;;;;;;5.41;87.21;100493.25;5100889;28;20822;-66
2020/12/20 08:00:01;;;;;;;16.23;13.60;;;;;;;5.49;86.79;100497.22;5119070;28;20542;-66
2020/12/20 08:02:27;;;;;;;15.13;11.90;;;;;;;5.55;86.91;100504.75;5104425;28;20470;-66
2020/12/20 08:05:04;;;;;;;15.80;12.20;;;;;;;5.68;86.51;100500.31;5107962;28;20530;-66
2020/12/20 08:07:30;;;;;;;13.93;12.50;;;;;;;5.75;85.97;100500.78;5085047;28;20474;-66
2020/12/20 08:09:56;;;;;;;13.40;11.40;;;;;;;5.79;85.75;100503.09;5086169;28;20947;-66
2020/12/20 08:12:23;;;;;;;15.80;12.67;;;;;;;5.82;86.08;100507.34;5100294;28;20500;-65
2020/12/20 08:15:00;;;;;;;15.77;13.10;;;;;;;5.95;85.35;100507.38;5093840;28;20455;-66
2020/12/20 08:17:26;;;;;;;14.83;12.10;;;;;;;5.93;85.23;100512.78;5084573;28;20468;-66
2020/12/20 08:19:52;;;;;;;15.00;12.47;;;;;;;5.86;85.51;100503.53;5086211;28;20839;-66
2020/12/20 08:22:20;;;;;;;14.93;12.07;;;;;;;5.78;85.82;100500.53;5084801;28;20483;-66
2020/12/20 08:24:47;;;;;;;12.63;11.33;;;;;;;5.76;85.98;100503.28;5085876;28;20484;-67
2020/12/20 08:27:15;;;;;;;16.20;12.40;;;;;;;5.81;85.83;100505.66;5102847;28;20471;-65
2020/12/20 08:29:42;;;;;;;15.93;13.33;;;;;;;5.81;85.73;100510.94;5105619;28;20937;-66
2020/12/20 08:32:13;;;;;;;18.17;12.87;;;;;;;5.87;85.55;100515.84;5118474;28;20614;-66
2020/12/20 08:34:39;;;;;;;14.07;11.80;;;;;;;6.05;85.24;100515.59;5114450;28;20461;-66
2020/12/20 08:37:10;;;;;;;16.13;12.33;;;;;;;6.00;85.40;100511.44;5087739;27;20503;-66
2020/12/20 08:39:36;;;;;;;13.63;11.90;;;;;;;6.02;85.25;100503.38;5085593;28;20428;-66
2020/12/20 08:42:04;;;;;;;16.90;12.27;;;;;;;6.02;85.41;100498.06;5095437;28;20478;-66
2020/12/20 08:44:30;;;;;;;12.23;10.87;;;;;;;6.08;85.09;100510.06;5090930;28;20467;-66
2020/12/20 08:47:11;;;;;;;17.60;13.50;;;;;;;5.95;85.57;100508.19;5084881;28;20504;-66
2020/12/20 08:49:38;;;;;;;15.97;12.10;;;;;;;6.01;85.49;100507.00;5084641;28;20443;-66
2020/12/20 08:52:10;;;;;;;15.50;11.83;;;;;;;6.13;85.07;100510.63;5080288;28;20479;-66
2020/12/20 08:54:36;;;;;;;14.00;12.10;;;;;;;6.09;85.22;100501.97;5085206;28;20432;-66
2020/12/20 08:57:08;;;;;;;15.87;13.47;;;;;;;6.08;85.25;100515.38;5083817;28;20503;-67
2020/12/20 08:59:36;;;;;;;19.03;13.77;;;;;;;6.02;85.29;100508.66;5084272;28;20448;-66
2020/12/20 09:02:04;;;;;;;17.40;14.03;;;;;;;5.97;85.76;100516.97;5064033;28;20472;-66
2020/12/20 09:04:33;;;;;;;15.97;11.87;;;;;;;6.01;85.64;100513.13;5082099;28;20527;-66
2020/12/20 09:07:07;;;;;;;23.73;20.10;;;;;;;6.21;85.27;100518.88;5081527;28;20890;-66
2020/12/20 09:09:34;;;;;;;16.73;13.53;;;;;;;6.28;84.69;100525.44;5089590;28;20463;-66
2020/12/20 09:12:10;;;;;;;37.97;33.67;;;;;;;6.43;84.45;100523.56;5082813;28;21182;-66
2020/12/20 09:14:37;;;;;;;16.47;13.30;;;;;;;6.64;83.39;100531.81;5082195;28;20436;-66
2020/12/20 09:17:03;;;;;;;62.20;45.90;;;;;;;6.68;83.57;100532.44;5082476;28;20482;-67
2020/12/20 09:19:29;;;;;;;177.97;118.57;;;;;;;6.57;83.91;100535.88;5083220;28;20443;-66
2020/12/20 09:21:57;;;;;;;51.67;39.43;;;;;;;6.53;84.15;100534.41;5097412;28;20479;-66
2020/12/20 09:24:25;;;;;;;14.17;11.87;;;;;;;6.82;82.96;100544.75;5104231;28;20469;-66
2020/12/20 09:26:56;;;;;;;21.80;18.77;;;;;;;6.93;82.65;100558.13;5103101;28;20528;-66
2020/12/20 09:29:22;;;;;;;17.43;13.37;;;;;;;6.94;83.14;100555.38;5103190;28;20493;-66
2020/12/20 09:31:51;;;;;;;14.10;12.03;;;;;;;7.26;81.80;100549.53;5102403;27;20989;-66
2020/12/20 09:34:17;;;;;;;13.40;11.40;;;;;;;7.23;81.95;100552.41;5109519;28;20486;-66
2020/12/20 09:36:43;;;;;;;17.77;11.23;;;;;;;7.52;81.10;100552.09;5112421;27;20479;-66
2020/12/20 09:39:12;;;;;;;13.97;12.47;;;;;;;7.69;80.56;100549.03;5101877;28;20434;-66
2020/12/20 09:41:38;;;;;;;14.10;12.07;;;;;;;7.81;79.87;100555.25;5101560;28;20482;-66
2020/12/20 09:44:04;;;;;;;27.37;24.63;;;;;;;7.91;80.02;100542.91;5104877;28;20446;-66
2020/12/20 09:46:33;;;;;;;13.40;12.00;;;;;;;8.54;77.91;100555.94;5111059;27;20518;-66
2020/12/20 09:48:59;;;;;;;16.50;13.37;;;;;;;8.40;77.24;100548.97;5107282;28;20460;-66
2020/12/20 09:51:26;;;;;;;15.60;12.47;;;;;;;8.37;77.32;100556.38;5106401;27;20482;-66
2020/12/20 09:53:53;;;;;;;18.93;17.03;;;;;;;7.92;79.67;100562.41;5103210;28;20439;-66
2020/12/20 09:56:20;;;;;;;25.73;23.00;;;;;;;7.84;80.08;100556.81;5102842;28;20470;-66
2020/12/20 09:58:47;;;;;;;29.23;23.80;;;;;;;7.64;80.84;100553.00;5103909;28;20439;-69
2020/12/20 10:01:16;;;;;;;19.20;14.87;;;;;;;7.71;81.12;100552.41;5100922;28;20479;-65
2020/12/20 10:03:42;;;;;;;19.43;15.00;;;;;;;7.85;79.95;100556.69;5102987;28;20491;-66
2020/12/20 10:06:08;;;;;;;11.07;9.83;;;;;;;7.99;79.71;100562.81;5094536;27;20540;-66
2020/12/20 10:08:35;;;;;;;24.40;21.23;;;;;;;8.18;78.54;100559.59;5110385;28;20440;-66
2020/12/20 10:11:01;;;;;;;11.70;10.50;;;;;;;8.52;77.42;100565.00;5101829;28;20474;-66
2020/12/20 10:13:28;;;;;;;14.13;10.50;;;;;;;8.55;77.16;100559.44;5097156;28;20450;-65
2020/12/20 10:15:54;;;;;;;13.13;10.73;;;;;;;8.74;76.82;100562.34;5090619;28;20498;-65
2020/12/20 10:18:20;;;;;;;13.57;10.33;;;;;;;8.91;75.43;100563.69;5080971;28;20458;-70
2020/12/20 10:20:46;;;;;;;14.97;12.30;;;;;;;8.90;75.77;100556.63;5070927;28;20476;-74
2020/12/20 10:23:13;;;;;;;15.47;11.97;;;;;;;9.09;74.80;100557.84;5086178;28;20458;-76
2020/12/20 10:25:40;;;;;;;15.40;12.13;;;;;;;9.01;74.82;100558.47;5084353;28;20478;-78
2020/12/20 10:28:07;;;;;;;13.70;11.50;;;;;;;8.81;75.38;100554.72;5084992;28;20523;-74
2020/12/20 10:30:34;;;;;;;15.07;12.00;;;;;;;8.89;76.02;100552.28;5084518;28;20460;-79
2020/12/20 10:33:00;;;;;;;13.00;11.07;;;;;;;9.18;74.63;100546.41;5085525;28;20444;-71
2020/12/20 10:35:27;;;;;;;12.60;10.67;;;;;;;9.16;74.30;100549.22;5083287;28;20476;-68
2020/12/20 10:37:54;;;;;;;15.00;11.40;;;;;;;9.10;75.71;100546.22;5084801;28;20443;-75
2020/12/20 10:40:20;;;;;;;12.70;11.10;;;;;;;9.02;75.06;100544.16;5084217;28;20444;-77
2020/12/20 10:42:47;;;;;;;11.30;10.10;;;;;;;9.08;74.96;100546.34;5084660;28;20436;-77
2020/12/20 10:45:13;;;;;;;12.80;10.50;;;;;;;9.16;74.69;100543.88;5083460;28;20471;-78
2020/12/20 10:47:41;;;;;;;10.97;9.83;;;;;;;9.28;74.99;100541.19;5085209;28;20463;-69
2020/12/20 10:50:07;;;;;;;11.97;10.27;;;;;;;9.16;74.96;100548.38;5083213;28;20450;-76
2020/12/20 10:52:34;;;;;;;11.20;9.60;;;;;;;9.37;74.59;100543.97;5084964;28;20452;-70
2020/12/20 10:55:02;;;;;;;12.47;10.33;;;;;;;9.28;74.95;100541.19;5084576;28;20477;-71
2020/12/20 10:57:28;;;;;;;10.43;9.40;;;;;;;9.15;75.41;100547.53;5082786;28;20483;-72
2020/12/20 10:59:54;;;;;;;11.90;10.10;;;;;;;9.23;75.00;100547.75;5085075;28;20455;-69
2020/12/20 11:02:20;;;;;;;11.33;9.43;;;;;;;9.15;75.34;100544.88;5082746;28;20506;-70
2020/12/20 11:04:47;;;;;;;10.63;9.53;;;;;;;9.24;75.95;100549.44;5080949;28;20503;-70
2020/12/20 11:07:15;;;;;;;10.60;9.20;;;;;;;9.21;76.02;100551.50;5083084;28;20479;-72
2020/12/20 11:09:42;;;;;;;9.73;8.63;;;;;;;9.09;76.92;100548.00;5084700;28;20459;-73
2020/12/20 11:12:10;;;;;;;12.50;8.30;;;;;;;9.16;76.34;100545.69;5082803;28;20526;-70
2020/12/20 11:14:36;;;;;;;8.60;7.70;;;;;;;9.02;77.37;100542.31;5083032;28;20958;-69
2020/12/20 11:17:03;;;;;;;8.37;6.93;;;;;;;9.21;77.14;100540.84;5082662;28;20479;-70
2020/12/20 11:19:30;;;;;;;6.63;5.80;;;;;;;9.11;76.77;100537.22;5084562;28;20446;-70
2020/12/20 11:21:57;;;;;;;6.63;6.03;;;;;;;9.10;77.19;100538.22;5100189;28;21025;-71
2020/12/20 11:24:24;;;;;;;7.50;6.77;;;;;;;9.02;76.70;100531.66;5105857;28;20443;-70
2020/12/20 11:26:51;;;;;;;7.40;6.43;;;;;;;9.07;77.44;100533.13;5102838;28;20482;-70